Holmdel, New Jersey
Current Conditions -  °F | °C
As of 4:55 AM on Friday 24 Oct 2014 (Local Time) from KBLM Reporting Station
Broken Clouds Broken Clouds  
Wind Chill: 45°   Ceiling: 8000
Heat Index: 48°   Visibility: 10mi
Dew Point: 39°   Wind: 7mph
Humidity: 71%   Direction: 300°WNW
Pressure: 29.8"   Gusts: NA
Location:  40.34°N, 74.18°W
Report Text: KBLM 240855Z AUTO 30006KT 10SM SCT050 BKN080 09/04 A2980 RMK AO1 52010
Loading
Personal Weather Stations






























Interactive Weather Map
Tropical Storm Tracking
New forecast layout! Learn more

10-Day Weather Forecast

Advertisements
Track Severe Weather on mobile